Time,TemperatureF,DewpointF,PressureIn,WindDirection,WindDirectionDegrees,WindSpeedMPH,WindSpeedGustMPH,Humidity,HourlyPrecipIn,Conditions,Clouds,dailyrainin,SoftwareType,DateUTC
2013-01-22 00:00:00,17.8,14.6,29.81,SE,145,0.0,0.0,87,0.00,OVC,,0.00,WeatherDisplay:10.37,2013-01-22 05:00:00,
2013-01-22 00:01:00,17.8,14.6,29.81,SE,146,0.0,0.0,87,0.00,OVC,,0.00,WeatherDisplay:10.37,2013-01-22 05:01:00,
2013-01-22 00:06:00,18.1,14.9,29.80,SE,145,0.0,0.0,87,0.00,OVC,,0.00,WeatherDisplay:10.37,2013-01-22 05:06:00,
2013-01-22 00:11:00,18.3,15.1,29.80,SE,145,0.0,0.0,87,0.00,OVC,,0.00,WeatherDisplay:10.37,2013-01-22 05:11:00,
2013-01-22 00:16:00,18.3,15.1,29.80,SE,146,0.0,0.0,87,0.00,OVC,,0.00,WeatherDisplay:10.37,2013-01-22 05:16:00,
2013-01-22 00:21:00,18.5,15.3,29.80,SE,145,0.0,0.0,87,0.00,OVC,,0.00,WeatherDisplay:10.37,2013-01-22 05:21:00,
2013-01-22 00:26:00,18.5,15.3,29.80,SE,145,0.0,0.0,87,0.00,OVC,,0.00,WeatherDisplay:10.37,2013-01-22 05:26:00,
2013-01-22 00:31:00,18.5,15.3,29.80,SE,145,0.0,0.0,87,0.00,OVC,,0.00,WeatherDisplay:10.37,2013-01-22 05:31:00,
2013-01-22 00:36:00,18.6,15.4,29.80,SE,145,0.0,0.0,87,0.00,OVC,,0.00,WeatherDisplay:10.37,2013-01-22 05:36:00,
2013-01-22 00:41:00,18.6,15.4,29.80,SE,145,0.0,0.0,87,0.00,OVC,,0.00,WeatherDisplay:10.37,2013-01-22 05:41:00,
2013-01-22 00:46:00,18.8,15.6,29.80,SE,144,0.0,0.0,87,0.00,-SN,,0.00,WeatherDisplay:10.37,2013-01-22 05:46:00,
2013-01-22 00:51:00,18.8,15.6,29.80,SE,146,0.0,0.0,87,0.00,-SN,,0.00,WeatherDisplay:10.37,2013-01-22 05:51:00,
2013-01-22 00:56:00,18.9,15.7,29.80,SE,141,1.0,2.3,87,0.00,-SN,,0.00,WeatherDisplay:10.37,2013-01-22 05:56:00,
2013-01-22 01:01:00,19.1,15.9,29.77,SE,131,0.0,1.1,87,0.00,-SN,,0.00,WeatherDisplay:10.37,2013-01-22 06:01:00,
2013-01-22 01:06:00,19.1,15.6,29.77,SE,129,0.0,0.0,86,0.00,-SN,,0.00,WeatherDisplay:10.37,2013-01-22 06:06:00,
2013-01-22 01:11:00,18.9,15.4,29.78,SE,129,0.0,0.0,86,0.00,-SN,,0.00,WeatherDisplay:10.37,2013-01-22 06:11:00,
2013-01-22 01:16:00,18.9,15.4,29.78,SE,128,0.0,0.0,86,0.00,-SN,,0.00,WeatherDisplay:10.37,2013-01-22 06:16:00,
2013-01-22 01:21:00,18.8,15.3,29.78,SE,128,0.0,0.0,86,0.00,-SN,,0.00,WeatherDisplay:10.37,2013-01-22 06:21:00,
2013-01-22 01:26:00,18.5,14.7,29.78,SE,128,0.0,0.0,85,0.00,-SN,,0.00,WeatherDisplay:10.37,2013-01-22 06:26:00,
2013-01-22 01:31:00,18.3,14.5,29.78,SE,129,0.0,0.0,85,0.00,-SN,,0.00,WeatherDisplay:10.37,2013-01-22 06:31:00,
2013-01-22 01:36:00,18.1,14.4,29.78,SE,129,0.0,0.0,85,0.00,-SN,,0.00,WeatherDisplay:10.37,2013-01-22 06:36:00,
2013-01-22 01:41:00,18.0,14.3,29.78,SE,129,0.0,0.0,85,0.00,-SN,,0.00,WeatherDisplay:10.37,2013-01-22 06:41:00,
2013-01-22 01:46:00,17.8,14.1,29.78,SE,128,0.0,0.0,85,0.00,-SN,,0.00,WeatherDisplay:10.37,2013-01-22 06:46:00,
2013-01-22 01:51:00,17.8,14.1,29.78,SE,129,0.0,0.0,85,0.00,-SN,,0.00,WeatherDisplay:10.37,2013-01-22 06:51:00,
2013-01-22 01:56:00,17.8,14.1,29.78,SE,128,0.7,2.3,85,0.00,-SN,,0.00,WeatherDisplay:10.37,2013-01-22 06:56:00,
2013-01-22 02:01:00,17.7,14.0,29.78,SE,129,0.0,0.0,85,0.00,-SN,,0.00,WeatherDisplay:10.37,2013-01-22 07:01:00,
2013-01-22 02:06:00,17.7,14.0,29.78,SE,128,0.0,0.0,85,0.00,-SN,,0.00,WeatherDisplay:10.37,2013-01-22 07:06:00,
2013-01-22 02:11:00,17.7,14.2,29.79,SE,129,0.0,0.0,86,0.00,-SN,,0.00,WeatherDisplay:10.37,2013-01-22 07:11:00,
2013-01-22 02:16:00,18.0,14.5,29.79,SE,128,0.0,1.1,86,0.00,-SN,,0.00,WeatherDisplay:10.37,2013-01-22 07:16:00,
2013-01-22 02:21:00,18.1,14.6,29.78,SE,128,0.0,0.0,86,0.00,-SN,,0.00,WeatherDisplay:10.37,2013-01-22 07:21:00,
2013-01-22 02:26:00,18.3,15.1,29.78,SE,128,0.0,0.0,87,0.00,-SN,,0.00,WeatherDisplay:10.37,2013-01-22 07:26:00,
2013-01-22 02:31:00,18.5,15.3,29.78,SE,129,0.0,0.0,87,0.00,-SN,,0.00,WeatherDisplay:10.37,2013-01-22 07:31:00,
2013-01-22 02:36:00,18.6,15.4,29.78,SE,128,0.0,0.0,87,0.00,-SN,,0.00,WeatherDisplay:10.37,2013-01-22 07:36:00,
2013-01-22 02:41:00,18.6,15.4,29.78,SE,128,0.0,0.0,87,0.00,-SN,,0.00,WeatherDisplay:10.37,2013-01-22 07:41:00,
2013-01-22 02:46:00,18.8,15.3,29.78,SE,129,0.0,0.0,86,0.00,-SN,,0.00,WeatherDisplay:10.37,2013-01-22 07:46:00,
2013-01-22 02:51:00,18.8,15.3,29.78,SE,127,0.0,0.0,86,0.00,-SN,,0.00,WeatherDisplay:10.37,2013-01-22 07:51:00,
2013-01-22 02:56:00,18.8,15.3,29.78,SE,129,0.0,0.0,86,0.00,-SN,,0.00,WeatherDisplay:10.37,2013-01-22 07:56:00,
2013-01-22 03:01:00,18.8,15.3,29.78,SE,128,0.0,0.0,86,0.00,-SN,,0.00,WeatherDisplay:10.37,2013-01-22 08:01:00,
2013-01-22 03:06:00,18.6,15.1,29.78,SE,128,0.0,0.0,86,0.00,-SN,,0.00,WeatherDisplay:10.37,2013-01-22 08:06:00,
2013-01-22 03:11:00,18.6,15.1,29.77,SE,129,0.0,0.0,86,0.00,-SN,,0.00,WeatherDisplay:10.37,2013-01-22 08:11:00,
2013-01-22 03:16:00,18.6,15.1,29.77,SE,129,0.0,0.0,86,0.00,-SN,,0.00,WeatherDisplay:10.37,2013-01-22 08:16:00,
2013-01-22 03:21:00,18.6,15.1,29.77,SE,128,0.0,0.0,86,0.00,-SN,,0.00,WeatherDisplay:10.37,2013-01-22 08:21:00,
2013-01-22 03:26:00,18.6,15.1,29.77,SE,128,0.0,0.0,86,0.00,-SN,,0.00,WeatherDisplay:10.37,2013-01-22 08:26:00,
2013-01-22 03:31:00,18.8,15.3,29.77,SE,129,0.0,0.0,86,0.00,-SN,,0.00,WeatherDisplay:10.37,2013-01-22 08:31:00,
2013-01-22 03:36:00,18.8,15.3,29.77,SE,129,0.0,0.0,86,0.00,-SN,,0.00,WeatherDisplay:10.37,2013-01-22 08:36:00,
2013-01-22 03:41:00,18.8,15.3,29.77,SE,129,0.0,0.0,86,0.00,-SN,,0.00,WeatherDisplay:10.37,2013-01-22 08:41:00,
2013-01-22 03:46:00,18.6,15.1,29.77,SE,128,0.0,0.0,86,0.00,-SN,,0.00,WeatherDisplay:10.37,2013-01-22 08:46:00,
2013-01-22 03:51:00,18.5,15.0,29.77,SE,129,0.0,0.0,86,0.00,-SN,,0.00,WeatherDisplay:10.37,2013-01-22 08:51:00,
2013-01-22 03:56:00,18.5,15.0,29.77,SE,128,0.0,0.0,86,0.00,-SN,,0.00,WeatherDisplay:10.37,2013-01-22 08:56:00,
2013-01-22 04:01:00,18.3,14.8,29.77,SE,128,0.0,0.0,86,0.00,-SN,,0.00,WeatherDisplay:10.37,2013-01-22 09:01:00,
2013-01-22 04:06:00,18.3,14.8,29.77,SE,128,0.0,0.0,86,0.00,-SN,,0.00,WeatherDisplay:10.37,2013-01-22 09:06:00,
2013-01-22 04:11:00,18.1,14.6,29.77,SE,128,0.0,0.0,86,0.00,-SN,,0.00,WeatherDisplay:10.37,2013-01-22 09:11:00,
2013-01-22 04:16:00,18.1,14.6,29.77,SE,128,0.0,0.0,86,0.00,-SN,,0.00,WeatherDisplay:10.37,2013-01-22 09:16:00,
2013-01-22 04:21:00,18.0,14.5,29.77,SE,128,0.0,0.0,86,0.00,-SN,,0.00,WeatherDisplay:10.37,2013-01-22 09:21:00,
2013-01-22 04:26:00,18.0,14.5,29.77,SE,128,0.0,0.0,86,0.00,-SN,,0.00,WeatherDisplay:10.37,2013-01-22 09:26:00,
2013-01-22 04:31:00,17.8,14.3,29.77,SE,128,0.0,0.0,86,0.00,-SN,,0.00,WeatherDisplay:10.37,2013-01-22 09:31:00,
2013-01-22 04:36:00,17.8,14.3,29.77,SE,129,0.0,0.0,86,0.00,-SN,,0.00,WeatherDisplay:10.37,2013-01-22 09:36:00,
2013-01-22 04:41:00,17.8,14.3,29.77,SE,128,0.0,0.0,86,0.00,-SN,,0.00,WeatherDisplay:10.37,2013-01-22 09:41:00,
2013-01-22 04:46:00,17.7,14.2,29.77,SE,128,0.0,0.0,86,0.00,OVC,,0.00,WeatherDisplay:10.37,2013-01-22 09:46:00,
2013-01-22 04:51:00,17.7,14.2,29.77,SE,129,0.0,0.0,86,0.00,OVC,,0.00,WeatherDisplay:10.37,2013-01-22 09:51:00,
2013-01-22 04:56:00,17.5,14.0,29.77,SE,129,0.0,0.0,86,0.00,OVC,,0.00,WeatherDisplay:10.37,2013-01-22 09:56:00,
2013-01-22 05:01:00,17.5,14.0,29.76,SE,128,0.0,0.0,86,0.00,-SN,,0.00,WeatherDisplay:10.37,2013-01-22 10:01:00,
2013-01-22 05:06:00,17.5,14.0,29.76,SE,129,0.0,0.0,86,0.00,-SN,,0.00,WeatherDisplay:10.37,2013-01-22 10:06:00,
2013-01-22 05:11:00,17.5,14.0,29.77,SE,128,0.0,0.0,86,0.00,-SN,,0.00,WeatherDisplay:10.37,2013-01-22 10:11:00,
2013-01-22 05:16:00,17.4,13.9,29.77,SE,128,0.0,0.0,86,0.00,-SN,,0.00,WeatherDisplay:10.37,2013-01-22 10:16:00,
2013-01-22 05:21:00,17.2,13.7,29.77,SE,128,0.5,1.1,86,0.00,-SN,,0.00,WeatherDisplay:10.37,2013-01-22 10:21:00,
2013-01-22 05:26:00,17.0,13.5,29.77,SE,128,0.0,0.0,86,0.00,-SN,,0.00,WeatherDisplay:10.37,2013-01-22 10:26:00,
2013-01-22 05:31:00,16.9,13.4,29.78,SE,129,0.0,0.0,86,0.00,-SN,,0.00,WeatherDisplay:10.37,2013-01-22 10:31:00,
2013-01-22 05:36:00,16.9,13.4,29.78,SE,129,0.0,0.0,86,0.00,-SN,,0.00,WeatherDisplay:10.37,2013-01-22 10:36:00,
2013-01-22 05:41:00,17.0,13.5,29.78,SE,128,0.0,0.0,86,0.00,-SN,,0.00,WeatherDisplay:10.37,2013-01-22 10:41:00,
2013-01-22 05:46:00,17.0,13.5,29.78,SE,129,0.0,0.0,86,0.00,-SN,,0.00,WeatherDisplay:10.37,2013-01-22 10:46:00,
2013-01-22 05:51:00,17.0,13.5,29.78,SE,128,0.0,0.0,86,0.00,-SN,,0.00,WeatherDisplay:10.37,2013-01-22 10:51:00,
2013-01-22 05:56:00,16.9,13.4,29.78,SE,128,0.0,0.0,86,0.00,-SN,,0.00,WeatherDisplay:10.37,2013-01-22 10:56:00,
2013-01-22 06:01:00,16.9,13.4,29.79,SE,128,0.1,1.0,86,0.00,-SN,,0.00,WeatherDisplay:10.37,2013-01-22 11:01:00,
2013-01-22 06:06:00,16.9,13.4,29.79,SE,129,0.8,1.1,86,0.00,-SN,,0.00,WeatherDisplay:10.37,2013-01-22 11:06:00,
2013-01-22 06:11:00,16.9,13.7,29.79,ESE,122,1.2,3.5,87,0.00,-SN,,0.00,WeatherDisplay:10.37,2013-01-22 11:11:00,
2013-01-22 06:16:00,17.0,13.8,29.79,ESE,122,1.4,2.3,87,0.00,-SN,,0.00,WeatherDisplay:10.37,2013-01-22 11:16:00,
2013-01-22 06:22:00,17.2,14.0,29.79,ESE,118,1.0,2.3,87,0.00,-SN,,0.00,WeatherDisplay:10.37,2013-01-22 11:22:00,
2013-01-22 06:27:00,17.2,14.0,29.80,NW,321,1.8,3.5,87,0.00,-SN,,0.00,WeatherDisplay:10.37,2013-01-22 11:27:00,
2013-01-22 06:32:00,17.2,13.7,29.80,NW,326,0.1,1.1,86,0.00,-SN,,0.00,WeatherDisplay:10.37,2013-01-22 11:32:00,
2013-01-22 06:37:00,17.2,13.7,29.80,NNW,329,1.2,3.5,86,0.00,-SN,,0.00,WeatherDisplay:10.37,2013-01-22 11:37:00,
2013-01-22 06:42:00,17.0,13.5,29.80,NNW,329,0.0,0.0,86,0.00,-SN,,0.00,WeatherDisplay:10.37,2013-01-22 11:42:00,
2013-01-22 06:47:00,16.9,13.2,29.80,NNW,329,0.0,0.0,85,0.00,-SN,,0.00,WeatherDisplay:10.37,2013-01-22 11:47:00,
2013-01-22 06:52:00,16.7,13.0,29.80,NNW,327,0.0,0.0,85,0.00,-SN,,0.00,WeatherDisplay:10.37,2013-01-22 11:52:00,
2013-01-22 06:57:00,16.6,12.9,29.80,NNW,330,0.0,0.0,85,0.00,-SN,,0.00,WeatherDisplay:10.37,2013-01-22 11:57:00,
2013-01-22 07:02:00,16.4,12.7,29.80,NNW,330,0.0,0.0,85,0.00,-SN,,0.00,WeatherDisplay:10.37,2013-01-22 12:02:00,
2013-01-22 07:07:00,16.1,12.1,29.80,NNW,330,0.0,1.1,84,0.00,-SN,,0.00,WeatherDisplay:10.37,2013-01-22 12:07:00,
2013-01-22 07:12:00,15.8,11.8,29.80,West,276,3.8,5.8,84,0.00,-SN,,0.00,WeatherDisplay:10.37,2013-01-22 12:12:00,
2013-01-22 07:17:00,16.2,12.5,29.81,NW,326,5.0,8.1,85,0.00,-SN,,0.00,WeatherDisplay:10.37,2013-01-22 12:17:00,
2013-01-22 07:22:00,16.9,13.2,29.81,WNW,282,7.5,11.5,85,0.00,-SN,,0.00,WeatherDisplay:10.37,2013-01-22 12:22:00,
2013-01-22 07:27:00,17.2,12.9,29.81,NW,313,6.9,11.5,83,0.00,-SN,,0.00,WeatherDisplay:10.37,2013-01-22 12:27:00,
2013-01-22 07:32:00,17.4,12.8,29.81,WNW,286,9.2,13.8,82,0.00,-SN,,0.00,WeatherDisplay:10.37,2013-01-22 12:32:00,
2013-01-22 07:37:00,17.5,12.4,29.82,NNW,331,7.3,10.0,80,0.00,-SN,,0.00,WeatherDisplay:10.37,2013-01-22 12:37:00,
2013-01-22 07:42:00,17.7,12.3,29.82,WNW,303,6.1,6.1,79,0.00,-SN,,0.00,WeatherDisplay:10.37,2013-01-22 12:42:00,
2013-01-22 07:48:00,17.8,11.8,29.82,NW,323,10.5,16.1,77,0.00,OVC,,0.00,WeatherDisplay:10.37,2013-01-22 12:48:00,
2013-01-22 07:53:00,17.8,11.2,29.82,NW,312,10.0,13.8,75,0.00,OVC,,0.00,WeatherDisplay:10.37,2013-01-22 12:53:00,
2013-01-22 07:58:00,17.8,10.3,29.82,WNW,293,6.5,12.0,72,0.00,OVC,,0.00,WeatherDisplay:10.37,2013-01-22 12:58:00,
2013-01-22 08:03:00,17.7,10.2,29.83,NW,320,5.7,10.4,72,0.00,-SN,,0.00,WeatherDisplay:10.37,2013-01-22 13:03:00,
2013-01-22 08:08:00,17.7,10.2,29.83,WNW,297,7.0,11.0,72,0.00,-SN,,0.00,WeatherDisplay:10.37,2013-01-22 13:08:00,
2013-01-22 08:13:00,17.7,10.2,29.83,NW,319,5.7,11.5,72,0.00,-SN,,0.00,WeatherDisplay:10.37,2013-01-22 13:13:00,
2013-01-22 08:18:00,17.7,10.2,29.83,WNW,300,3.7,8.1,72,0.00,-SN,,0.00,WeatherDisplay:10.37,2013-01-22 13:18:00,
2013-01-22 08:23:00,17.8,10.3,29.83,WNW,283,6.1,8.1,72,0.00,-SN,,0.00,WeatherDisplay:10.37,2013-01-22 13:23:00,
2013-01-22 08:29:00,18.1,10.3,29.83,NW,323,6.0,11.5,71,0.00,-SN,,0.00,WeatherDisplay:10.37,2013-01-22 13:29:00,
2013-01-22 08:34:00,18.5,10.0,29.84,NNW,330,5.2,11.5,69,0.00,-SN,,0.00,WeatherDisplay:10.37,2013-01-22 13:34:00,
2013-01-22 08:39:00,18.6,10.1,29.84,NNW,344,6.5,10.4,69,0.00,-SN,,0.00,WeatherDisplay:10.37,2013-01-22 13:39:00,
2013-01-22 08:44:00,18.8,9.6,29.84,WNW,288,6.0,11.5,67,0.00,-SN,,0.00,WeatherDisplay:10.37,2013-01-22 13:44:00,
2013-01-22 08:49:00,19.1,9.6,29.84,WNW,293,9.8,13.8,66,0.00,BKN,,0.00,WeatherDisplay:10.37,2013-01-22 13:49:00,
2013-01-22 08:54:00,19.4,9.5,29.84,NW,310,7.3,12.7,65,0.00,BKN,,0.00,WeatherDisplay:10.37,2013-01-22 13:54:00,
2013-01-22 08:59:00,19.4,9.5,29.84,NNW,341,5.5,8.1,65,0.00,BKN,,0.00,WeatherDisplay:10.37,2013-01-22 13:59:00,
2013-01-22 09:04:00,19.4,8.8,29.84,North,354,8.8,11.5,63,0.00,BKN,,0.00,WeatherDisplay:10.37,2013-01-22 14:04:00,
2013-01-22 09:09:00,19.6,8.7,29.84,WNW,295,4.1,10.0,62,0.00,BKN,,0.00,WeatherDisplay:10.37,2013-01-22 14:09:00,
2013-01-22 09:14:00,19.7,8.4,29.84,NNW,331,6.8,11.5,61,0.00,BKN,,0.00,WeatherDisplay:10.37,2013-01-22 14:14:00,
2013-01-22 09:19:00,19.7,8.0,29.84,NW,314,9.5,12.7,60,0.00,BKN,,0.00,WeatherDisplay:10.37,2013-01-22 14:19:00,
2013-01-22 09:24:00,20.0,8.3,29.84,WNW,292,8.0,11.5,60,0.00,BKN,,0.00,WeatherDisplay:10.37,2013-01-22 14:24:00,
2013-01-22 09:29:00,20.2,8.5,29.84,North,1,7.7,11.5,60,0.00,BKN,,0.00,WeatherDisplay:10.37,2013-01-22 14:29:00,
2013-01-22 09:34:00,20.3,7.9,29.84,NW,309,7.2,12.0,58,0.00,BKN,,0.00,WeatherDisplay:10.37,2013-01-22 14:34:00,
2013-01-22 09:39:00,20.7,7.9,29.85,NW,306,4.2,11.5,57,0.00,BKN,,0.00,WeatherDisplay:10.37,2013-01-22 14:39:00,
2013-01-22 09:44:00,20.5,6.9,29.85,NW,326,8.9,17.3,55,0.00,BKN,,0.00,WeatherDisplay:10.37,2013-01-22 14:44:00,
2013-01-22 09:49:00,20.5,6.9,29.85,NW,319,10.2,17.3,55,0.00,BKN,,0.00,WeatherDisplay:10.37,2013-01-22 14:49:00,
2013-01-22 09:54:00,20.7,6.7,29.85,NNW,336,7.8,11.5,54,0.00,BKN,,0.00,WeatherDisplay:10.37,2013-01-22 14:54:00,
2013-01-22 09:59:00,21.1,6.6,29.86,WNW,282,10.2,18.4,53,0.00,BKN,,0.00,WeatherDisplay:10.37,2013-01-22 14:59:00,
2013-01-22 10:04:00,21.3,6.4,29.86,WNW,303,10.1,12.0,52,0.00,CLR,,0.00,WeatherDisplay:10.37,2013-01-22 15:04:00,
2013-01-22 10:09:00,21.1,6.2,29.86,North,354,12.8,18.4,52,0.00,CLR,,0.00,WeatherDisplay:10.37,2013-01-22 15:09:00,
2013-01-22 10:14:00,21.3,6.4,29.86,NNW,348,13.4,18.4,52,0.00,CLR,,0.00,WeatherDisplay:10.37,2013-01-22 15:14:00,
2013-01-22 10:19:00,21.1,4.4,29.86,WNW,299,17.2,21.9,48,0.00,CLR,,0.00,WeatherDisplay:10.37,2013-01-22 15:19:00,
2013-01-22 10:24:00,20.2,3.2,29.86,NW,306,10.2,16.1,47,0.00,CLR,,0.00,WeatherDisplay:10.37,2013-01-22 15:24:00,
2013-01-22 10:29:00,19.9,2.9,29.86,NNW,333,10.6,18.4,47,0.00,CLR,,0.00,WeatherDisplay:10.37,2013-01-22 15:29:00,
2013-01-22 10:34:00,20.0,2.5,29.86,NNW,334,10.8,13.8,46,0.00,CLR,,0.00,WeatherDisplay:10.37,2013-01-22 15:34:00,
2013-01-22 10:39:00,20.3,2.8,29.86,NW,314,14.2,19.6,46,0.00,CLR,,0.00,WeatherDisplay:10.37,2013-01-22 15:39:00,
2013-01-22 10:44:00,20.8,3.2,29.86,WNW,286,7.0,13.0,46,0.00,CLR,,0.00,WeatherDisplay:10.37,2013-01-22 15:44:00,
2013-01-22 10:49:00,21.5,2.9,29.86,West,265,13.9,19.6,44,0.00,CLR,,0.00,WeatherDisplay:10.37,2013-01-22 15:49:00,
2013-01-22 10:54:00,21.6,1.5,29.86,NNW,331,11.5,18.0,41,0.00,CLR,,0.00,WeatherDisplay:10.37,2013-01-22 15:54:00,
2013-01-22 10:59:00,21.6,2.0,29.86,NNE,19,5.8,11.5,42,0.00,CLR,,0.00,WeatherDisplay:10.37,2013-01-22 15:59:00,
2013-01-22 11:04:00,22.1,1.4,29.86,WNW,302,9.1,16.1,40,0.00,CLR,,0.00,WeatherDisplay:10.37,2013-01-22 16:04:00,
2013-01-22 11:09:00,22.1,1.9,29.85,NW,316,10.0,16.1,41,0.00,CLR,,0.00,WeatherDisplay:10.37,2013-01-22 16:09:00,
2013-01-22 11:14:00,22.2,1.5,29.85,West,278,9.7,12.7,40,0.00,CLR,,0.00,WeatherDisplay:10.37,2013-01-22 16:14:00,
2013-01-22 11:19:00,22.6,2.9,29.85,WNW,289,6.8,11.5,42,0.00,CLR,,0.00,WeatherDisplay:10.37,2013-01-22 16:19:00,
2013-01-22 11:24:00,22.6,0.8,29.85,WNW,303,2.8,11.5,38,0.00,CLR,,0.00,WeatherDisplay:10.37,2013-01-22 16:24:00,
2013-01-22 11:29:00,22.7,1.4,29.84,WSW,244,8.2,13.8,39,0.00,CLR,,0.00,WeatherDisplay:10.37,2013-01-22 16:29:00,
2013-01-22 11:34:00,22.9,1.6,29.84,NW,305,9.4,13.8,39,0.00,CLR,,0.00,WeatherDisplay:10.37,2013-01-22 16:34:00,
2013-01-22 11:39:00,23.2,2.4,29.84,WNW,300,10.3,11.5,40,0.00,CLR,,0.00,WeatherDisplay:10.37,2013-01-22 16:39:00,
2013-01-22 11:44:00,23.3,2.0,29.84,WNW,293,8.1,11.0,39,0.00,CLR,,0.00,WeatherDisplay:10.37,2013-01-22 16:44:00,
2013-01-22 11:49:00,22.9,1.0,29.84,WNW,285,9.4,24.2,38,0.00,CLR,,0.00,WeatherDisplay:10.37,2013-01-22 16:49:00,
2013-01-22 11:54:00,22.4,0.6,29.84,WNW,297,7.9,20.0,38,0.00,CLR,,0.00,WeatherDisplay:10.37,2013-01-22 16:54:00,
2013-01-22 11:59:00,21.9,0.7,29.84,WNW,302,11.7,19.6,39,0.00,CLR,,0.00,WeatherDisplay:10.37,2013-01-22 16:59:00,
2013-01-22 12:04:00,21.6,-0.1,29.84,NW,312,11.9,19.6,38,0.00,CLR,,0.00,WeatherDisplay:10.37,2013-01-22 17:04:00,
2013-01-22 12:09:00,21.3,-0.4,29.84,NW,307,12.6,18.4,38,0.00,CLR,,0.00,WeatherDisplay:10.37,2013-01-22 17:09:00,
2013-01-22 12:14:00,21.5,-0.8,29.84,WNW,282,10.9,17.3,37,0.00,CLR,,0.00,WeatherDisplay:10.37,2013-01-22 17:14:00,
2013-01-22 12:19:00,21.6,-0.7,29.84,NW,319,10.5,21.9,37,0.00,CLR,,0.00,WeatherDisplay:10.37,2013-01-22 17:19:00,
2013-01-22 12:24:00,21.5,-1.4,29.84,WNW,282,5.3,18.4,36,0.00,CLR,,0.00,WeatherDisplay:10.37,2013-01-22 17:24:00,
2013-01-22 12:29:00,21.0,-1.8,29.84,WNW,285,10.2,19.6,36,0.00,CLR,,0.00,WeatherDisplay:10.37,2013-01-22 17:29:00,
2013-01-22 12:34:00,20.3,-2.5,29.84,West,272,13.1,17.3,36,0.00,CLR,,0.00,WeatherDisplay:10.37,2013-01-22 17:34:00,
2013-01-22 12:39:00,20.2,-2.5,29.84,West,279,14.2,20.7,36,0.00,CLR,,0.00,WeatherDisplay:10.37,2013-01-22 17:39:00,
2013-01-22 12:44:00,20.5,-2.3,29.84,WNW,282,13.8,24.2,36,0.00,CLR,,0.00,WeatherDisplay:10.37,2013-01-22 17:44:00,
2013-01-22 12:49:00,21.0,-1.8,29.84,West,272,11.5,19.6,36,0.00,CLR,,0.00,WeatherDisplay:10.37,2013-01-22 17:49:00,
2013-01-22 12:54:00,21.3,-2.2,29.84,West,271,8.1,16.1,35,0.00,CLR,,0.00,WeatherDisplay:10.37,2013-01-22 17:54:00,
2013-01-22 12:59:00,21.9,-3.5,29.84,NW,314,15.1,21.0,32,0.00,CLR,,0.00,WeatherDisplay:10.37,2013-01-22 17:59:00,
2013-01-22 13:04:00,21.9,-2.9,29.84,NW,319,10.8,19.6,33,0.00,SCT,,0.00,WeatherDisplay:10.37,2013-01-22 18:04:00,
2013-01-22 13:09:00,21.9,-2.9,29.84,WNW,295,7.2,16.1,33,0.00,SCT,,0.00,WeatherDisplay:10.37,2013-01-22 18:09:00,
2013-01-22 13:14:00,22.1,-1.4,29.84,WNW,288,8.7,13.8,35,0.00,SCT,,0.00,WeatherDisplay:10.37,2013-01-22 18:14:00,
2013-01-22 13:19:00,22.2,-2.6,29.84,WNW,292,10.5,19.6,33,0.00,SCT,,0.00,WeatherDisplay:10.37,2013-01-22 18:19:00,
2013-01-22 13:24:00,22.4,-1.8,29.84,NW,306,13.8,19.6,34,0.00,SCT,,0.00,WeatherDisplay:10.37,2013-01-22 18:24:00,
2013-01-22 13:29:00,22.4,-2.4,29.85,WNW,283,6.3,17.3,33,0.00,SCT,,0.00,WeatherDisplay:10.37,2013-01-22 18:29:00,
2013-01-22 13:34:00,22.2,-2.0,29.85,West,272,8.9,12.7,34,0.00,SCT,,0.00,WeatherDisplay:10.37,2013-01-22 18:34:00,
2013-01-22 13:39:00,21.9,-2.2,29.85,WNW,303,12.5,20.7,34,0.00,SCT,,0.00,WeatherDisplay:10.37,2013-01-22 18:39:00,
2013-01-22 13:44:00,21.9,-2.2,29.85,West,262,5.5,11.5,34,0.00,SCT,,0.00,WeatherDisplay:10.37,2013-01-22 18:44:00,
2013-01-22 13:49:00,22.1,-2.7,29.85,West,278,8.5,14.0,33,0.00,SCT,,0.00,WeatherDisplay:10.37,2013-01-22 18:49:00,
2013-01-22 13:54:00,22.1,-2.7,29.85,West,279,9.8,16.1,33,0.00,SCT,,0.00,WeatherDisplay:10.37,2013-01-22 18:54:00,
2013-01-22 13:59:00,21.3,-4.0,29.86,WNW,293,8.4,19.6,32,0.00,SCT,,0.00,WeatherDisplay:10.37,2013-01-22 18:59:00,
2013-01-22 14:04:00,20.8,-3.8,29.86,WNW,296,11.4,20.0,33,0.00,CLR,,0.00,WeatherDisplay:10.37,2013-01-22 19:04:00,
2013-01-22 14:09:00,20.3,-4.9,29.86,NW,317,10.2,20.7,32,0.00,CLR,,0.00,WeatherDisplay:10.37,2013-01-22 19:09:00,
2013-01-22 14:14:00,20.2,-3.7,29.86,NW,324,7.1,11.5,34,0.00,CLR,,0.00,WeatherDisplay:10.37,2013-01-22 19:14:00,
2013-01-22 14:19:00,19.9,-4.0,29.87,WNW,296,8.5,13.8,34,0.00,CLR,,0.00,WeatherDisplay:10.37,2013-01-22 19:19:00,
2013-01-22 14:24:00,19.7,-5.4,29.87,West,275,10.3,18.4,32,0.00,CLR,,0.00,WeatherDisplay:10.37,2013-01-22 19:24:00,
2013-01-22 14:29:00,19.4,-5.1,29.88,WNW,300,12.7,17.0,33,0.00,CLR,,0.00,WeatherDisplay:10.37,2013-01-22 19:29:00,
2013-01-22 14:34:00,19.2,-5.3,29.88,WSW,248,11.4,18.4,33,0.00,CLR,,0.00,WeatherDisplay:10.37,2013-01-22 19:34:00,
2013-01-22 14:39:00,19.1,-4.7,29.88,WNW,293,10.2,18.0,34,0.00,CLR,,0.00,WeatherDisplay:10.37,2013-01-22 19:39:00,
2013-01-22 14:44:00,18.9,-4.9,29.89,WNW,283,8.7,17.3,34,0.00,CLR,,0.00,WeatherDisplay:10.37,2013-01-22 19:44:00,
2013-01-22 14:49:00,18.9,-5.5,29.89,WNW,293,11.5,19.6,33,0.00,CLR,,0.00,WeatherDisplay:10.37,2013-01-22 19:49:00,
2013-01-22 14:54:00,19.2,-5.3,29.89,NW,314,8.3,13.0,33,0.00,CLR,,0.00,WeatherDisplay:10.37,2013-01-22 19:54:00,
2013-01-22 14:59:00,19.9,-5.3,29.89,NW,309,8.8,13.8,32,0.00,CLR,,0.00,WeatherDisplay:10.37,2013-01-22 19:59:00,
2013-01-22 15:04:00,20.0,-5.2,29.89,NW,326,13.4,19.6,32,0.00,OVC,,0.00,WeatherDisplay:10.37,2013-01-22 20:04:00,
2013-01-22 15:09:00,19.7,-4.8,29.89,NW,312,9.8,18.4,33,0.00,OVC,,0.00,WeatherDisplay:10.37,2013-01-22 20:09:00,
2013-01-22 15:14:00,20.0,-4.5,29.89,NW,312,10.5,14.0,33,0.00,OVC,,0.00,WeatherDisplay:10.37,2013-01-22 20:14:00,
2013-01-22 15:19:00,20.3,-4.3,29.90,WNW,303,6.1,11.5,33,0.00,OVC,,0.00,WeatherDisplay:10.37,2013-01-22 20:19:00,
2013-01-22 15:24:00,20.7,-3.3,29.90,WNW,300,5.5,12.0,34,0.00,OVC,,0.00,WeatherDisplay:10.37,2013-01-22 20:24:00,
2013-01-22 15:29:00,20.7,-4.6,29.90,WNW,297,13.3,18.4,32,0.00,OVC,,0.00,WeatherDisplay:10.37,2013-01-22 20:29:00,
2013-01-22 15:34:00,20.3,-5.6,29.90,WNW,303,5.1,12.7,31,0.00,OVC,,0.00,WeatherDisplay:10.37,2013-01-22 20:34:00,
2013-01-22 15:39:00,20.0,-5.2,29.91,WNW,299,8.0,11.5,32,0.00,OVC,,0.00,WeatherDisplay:10.37,2013-01-22 20:39:00,
2013-01-22 15:44:00,19.7,-4.2,29.91,West,268,6.8,16.1,34,0.00,OVC,,0.00,WeatherDisplay:10.37,2013-01-22 20:44:00,
2013-01-22 15:49:00,19.6,-3.1,29.91,WNW,288,6.6,9.2,36,0.00,OVC,,0.00,WeatherDisplay:10.37,2013-01-22 20:49:00,
2013-01-22 15:54:00,19.2,-2.9,29.91,NW,309,4.6,7.0,37,0.00,OVC,,0.00,WeatherDisplay:10.37,2013-01-22 20:54:00,
2013-01-22 15:59:00,19.1,-1.3,29.92,West,273,5.0,6.9,40,0.00,OVC,,0.00,WeatherDisplay:10.37,2013-01-22 20:59:00,
2013-01-22 16:04:00,18.8,-2.1,29.92,West,276,7.3,10.4,39,0.00,BKN,,0.00,WeatherDisplay:10.37,2013-01-22 21:04:00,
2013-01-22 16:09:00,18.6,-1.2,29.92,North,1,7.1,10.4,41,0.00,BKN,,0.00,WeatherDisplay:10.37,2013-01-22 21:09:00,
2013-01-22 16:14:00,18.5,-0.3,29.93,WNW,303,9.8,11.5,43,0.00,BKN,,0.00,WeatherDisplay:10.37,2013-01-22 21:14:00,
2013-01-22 16:19:00,18.1,4.2,29.93,WNW,288,7.8,13.0,54,0.00,BKN,,0.00,WeatherDisplay:10.37,2013-01-22 21:19:00,
2013-01-22 16:24:00,17.7,5.0,29.93,WNW,297,4.8,11.5,57,0.00,BKN,,0.00,WeatherDisplay:10.37,2013-01-22 21:24:00,
2013-01-22 16:29:00,17.5,4.1,29.94,WNW,282,9.5,11.5,55,0.00,BKN,,0.00,WeatherDisplay:10.37,2013-01-22 21:29:00,
2013-01-22 16:32:00,17.5,4.1,29.94,WNW,303,8.0,11.5,55,0.00,BKN,,0.00,WeatherDisplay:10.37,2013-01-22 21:32:00,
2013-01-22 16:37:00,17.4,4.7,29.94,NW,312,10.2,13.8,57,0.00,BKN,,0.00,WeatherDisplay:10.37,2013-01-22 21:37:00,
2013-01-22 16:42:00,17.2,4.9,29.94,WNW,282,6.6,10.4,58,0.00,BKN,,0.00,WeatherDisplay:10.37,2013-01-22 21:42:00,
2013-01-22 16:47:00,17.0,5.1,29.95,NW,323,8.3,11.5,59,0.00,BKN,,0.00,WeatherDisplay:10.37,2013-01-22 21:47:00,
2013-01-22 16:52:00,16.9,5.8,29.95,NW,316,5.7,11.5,61,0.00,BKN,,0.00,WeatherDisplay:10.37,2013-01-22 21:52:00,
2013-01-22 16:57:00,16.6,6.9,29.96,NW,324,3.9,5.8,65,0.00,BKN,,0.00,WeatherDisplay:10.37,2013-01-22 21:57:00,
2013-01-22 17:02:00,16.4,7.0,29.96,NNW,344,5.3,9.2,66,0.00,-SN,,0.00,WeatherDisplay:10.37,2013-01-22 22:02:00,
2013-01-22 17:07:00,16.2,7.2,29.96,WNW,297,8.4,11.5,67,0.00,-SN,,0.00,WeatherDisplay:10.37,2013-01-22 22:07:00,
2013-01-22 17:12:00,16.1,6.7,29.96,West,265,7.5,12.7,66,0.00,-SN,,0.00,WeatherDisplay:10.37,2013-01-22 22:12:00,
2013-01-22 17:17:00,15.9,6.9,29.96,NW,313,5.7,11.5,67,0.00,-SN,,0.00,WeatherDisplay:10.37,2013-01-22 22:17:00,
2013-01-22 17:22:00,16.1,7.1,29.96,WNW,292,9.3,13.0,67,0.00,-SN,,0.00,WeatherDisplay:10.37,2013-01-22 22:22:00,
2013-01-22 17:27:00,15.9,7.8,29.97,NW,309,8.2,11.5,70,0.00,-SN,,0.00,WeatherDisplay:10.37,2013-01-22 22:27:00,
2013-01-22 17:32:00,15.8,8.1,29.97,West,269,4.7,11.5,71,0.00,-SN,,0.00,WeatherDisplay:10.37,2013-01-22 22:32:00,
2013-01-22 17:37:00,15.6,8.2,29.98,WNW,289,5.9,11.0,72,0.00,-SN,,0.00,WeatherDisplay:10.37,2013-01-22 22:37:00,
2013-01-22 17:42:00,15.4,8.6,29.98,NW,307,7.0,11.5,74,0.00,-SN,,0.00,WeatherDisplay:10.37,2013-01-22 22:42:00,
2013-01-22 17:47:00,15.3,8.8,29.98,WNW,300,7.3,12.0,75,0.00,-SN,,0.00,WeatherDisplay:10.37,2013-01-22 22:47:00,
2013-01-22 17:52:00,15.3,9.1,29.98,WNW,300,6.8,11.5,76,0.00,-SN,,0.00,WeatherDisplay:10.37,2013-01-22 22:52:00,
2013-01-22 17:57:00,15.3,9.1,29.99,North,0,5.8,8.1,76,0.00,-SN,,0.00,WeatherDisplay:10.37,2013-01-22 22:57:00,
2013-01-22 18:02:00,15.1,9.2,29.99,WNW,283,8.5,19.6,77,0.00,BKN,,0.00,WeatherDisplay:10.37,2013-01-22 23:02:00,
2013-01-22 18:07:00,14.6,9.0,29.99,WSW,242,4.6,10.4,78,0.00,BKN,,0.00,WeatherDisplay:10.37,2013-01-22 23:07:00,
2013-01-22 18:12:00,14.3,8.7,29.99,West,276,6.3,11.5,78,0.00,BKN,,0.00,WeatherDisplay:10.37,2013-01-22 23:12:00,
2013-01-22 18:17:00,14.1,8.2,29.99,NNW,334,13.0,19.6,77,0.00,BKN,,0.00,WeatherDisplay:10.37,2013-01-22 23:17:00,
2013-01-22 18:23:00,14.0,7.5,29.99,SW,234,6.4,11.5,75,0.00,BKN,,0.00,WeatherDisplay:10.37,2013-01-22 23:23:00,
2013-01-22 18:28:00,13.8,6.7,30.00,WNW,282,9.8,17.3,73,0.00,BKN,,0.00,WeatherDisplay:10.37,2013-01-22 23:28:00,
2013-01-22 18:33:00,14.0,6.6,30.00,West,275,0.9,5.0,72,0.00,BKN,,0.00,WeatherDisplay:10.37,2013-01-22 23:33:00,
2013-01-22 18:38:00,14.0,6.0,30.00,WSW,251,4.8,6.9,70,0.00,BKN,,0.00,WeatherDisplay:10.37,2013-01-22 23:38:00,
2013-01-22 18:43:00,14.0,5.7,30.00,WSW,255,5.8,10.4,69,0.00,BKN,,0.00,WeatherDisplay:10.37,2013-01-22 23:43:00,
2013-01-22 18:48:00,13.8,4.9,30.00,WNW,303,3.4,5.8,67,0.00,-SN,,0.00,WeatherDisplay:10.37,2013-01-22 23:48:00,
2013-01-22 18:53:00,13.8,4.9,30.00,WNW,290,6.6,9.2,67,0.00,-SN,,0.00,WeatherDisplay:10.37,2013-01-22 23:53:00,
2013-01-22 18:58:00,13.8,4.9,30.01,NNW,338,5.2,8.1,67,0.00,-SN,,0.00,WeatherDisplay:10.37,2013-01-22 23:58:00,
2013-01-22 19:03:00,13.8,4.9,30.01,NW,317,5.8,10.4,67,0.00,BKN,,0.00,WeatherDisplay:10.37,2013-01-23 00:03:00,
2013-01-22 19:08:00,13.7,4.8,30.02,WNW,283,4.0,9.2,67,0.00,BKN,,0.00,WeatherDisplay:10.37,2013-01-23 00:08:00,
2013-01-22 19:13:00,13.5,4.9,30.02,WNW,286,3.9,8.1,68,0.00,BKN,,0.00,WeatherDisplay:10.37,2013-01-23 00:13:00,
2013-01-22 19:18:00,13.5,4.9,30.02,WNW,283,6.1,10.4,68,0.00,BKN,,0.00,WeatherDisplay:10.37,2013-01-23 00:18:00,
2013-01-22 19:23:00,13.5,5.2,30.02,NW,309,2.3,6.9,69,0.00,BKN,,0.00,WeatherDisplay:10.37,2013-01-23 00:23:00,
2013-01-22 19:28:00,13.7,5.4,30.02,WSW,252,3.9,6.0,69,0.00,BKN,,0.00,WeatherDisplay:10.37,2013-01-23 00:28:00,
2013-01-22 19:33:00,13.7,5.4,30.02,North,355,2.7,4.6,69,0.00,FEW,,0.00,WeatherDisplay:10.37,2013-01-23 00:33:00,
2013-01-22 19:38:00,13.7,5.1,30.03,NW,314,2.3,4.6,68,0.00,FEW,,0.00,WeatherDisplay:10.37,2013-01-23 00:38:00,
2013-01-22 19:43:00,13.5,4.6,30.03,NW,312,3.2,4.6,67,0.00,FEW,,0.00,WeatherDisplay:10.37,2013-01-23 00:43:00,
2013-01-22 19:48:00,13.3,4.4,30.03,WNW,295,6.4,10.4,67,0.00,FEW,,0.00,WeatherDisplay:10.37,2013-01-23 00:48:00,
2013-01-22 19:53:00,13.0,3.4,30.03,NW,319,6.3,10.0,65,0.00,FEW,,0.00,WeatherDisplay:10.37,2013-01-23 00:53:00,
2013-01-22 19:58:00,12.8,2.9,30.03,WNW,293,8.9,11.5,64,0.00,FEW,,0.00,WeatherDisplay:10.37,2013-01-23 00:58:00,
2013-01-22 20:03:00,12.5,2.3,30.03,NW,316,1.7,5.0,63,0.00,CLR,,0.00,WeatherDisplay:10.37,2013-01-23 01:03:00,
2013-01-22 20:08:00,12.3,1.7,30.03,WNW,302,1.7,3.0,62,0.00,CLR,,0.00,WeatherDisplay:10.37,2013-01-23 01:08:00,
2013-01-22 20:13:00,12.1,1.6,30.03,NW,306,2.8,4.6,62,0.00,CLR,,0.00,WeatherDisplay:10.37,2013-01-23 01:13:00,
2013-01-22 20:18:00,11.8,1.3,30.04,NW,312,0.6,5.8,62,0.00,CLR,,0.00,WeatherDisplay:10.37,2013-01-23 01:18:00,
2013-01-22 20:23:00,11.6,1.1,30.04,NW,307,2.0,3.5,62,0.00,CLR,,0.00,WeatherDisplay:10.37,2013-01-23 01:23:00,
2013-01-22 20:28:00,11.3,0.4,30.04,NNW,343,2.2,5.8,61,0.00,CLR,,0.00,WeatherDisplay:10.37,2013-01-23 01:28:00,
2013-01-22 20:33:00,11.1,-0.1,30.04,NNW,345,6.8,11.5,60,0.00,CLR,,0.00,WeatherDisplay:10.37,2013-01-23 01:33:00,
2013-01-22 20:38:00,11.3,-0.3,30.04,NW,314,4.3,8.1,59,0.00,CLR,,0.00,WeatherDisplay:10.37,2013-01-23 01:38:00,
2013-01-22 20:43:00,11.1,-0.8,30.04,NNW,327,6.6,8.1,58,0.00,CLR,,0.00,WeatherDisplay:10.37,2013-01-23 01:43:00,
2013-01-22 20:48:00,11.3,-1.0,30.04,WNW,297,7.2,10.4,57,0.00,CLR,,0.00,WeatherDisplay:10.37,2013-01-23 01:48:00,
2013-01-22 20:53:00,11.3,-1.0,30.04,NW,306,2.5,5.8,57,0.00,CLR,,0.00,WeatherDisplay:10.37,2013-01-23 01:53:00,
2013-01-22 20:58:00,10.9,-1.4,30.04,WNW,302,3.2,8.1,57,0.00,CLR,,0.00,WeatherDisplay:10.37,2013-01-23 01:58:00,
2013-01-22 21:03:00,10.8,-1.1,30.04,WNW,302,3.7,6.9,58,0.00,CLR,,0.00,WeatherDisplay:10.37,2013-01-23 02:03:00,
2013-01-22 21:08:00,10.4,-1.1,30.04,WNW,290,3.4,5.8,59,0.00,CLR,,0.00,WeatherDisplay:10.37,2013-01-23 02:08:00,
2013-01-22 21:13:00,10.2,-0.9,30.04,West,261,0.4,3.5,60,0.00,CLR,,0.00,WeatherDisplay:10.37,2013-01-23 02:13:00,
2013-01-22 21:18:00,9.9,-0.9,30.04,WNW,293,1.1,3.5,61,0.00,CLR,,0.00,WeatherDisplay:10.37,2013-01-23 02:18:00,
2013-01-22 21:23:00,9.7,-0.7,30.04,West,264,0.9,1.1,62,0.00,CLR,,0.00,WeatherDisplay:10.37,2013-01-23 02:23:00,
2013-01-22 21:28:00,9.4,-1.0,30.04,West,269,1.1,3.5,62,0.00,CLR,,0.00,WeatherDisplay:10.37,2013-01-23 02:28:00,
2013-01-22 21:33:00,9.2,-0.9,30.05,West,271,0.9,3.5,63,0.00,CLR,,0.00,WeatherDisplay:10.37,2013-01-23 02:33:00,
2013-01-22 21:38:00,8.9,-1.1,30.05,WSW,258,0.2,3.0,63,0.00,CLR,,0.00,WeatherDisplay:10.37,2013-01-23 02:38:00,
2013-01-22 21:43:00,8.5,-1.2,30.05,WSW,245,0.9,3.5,64,0.00,CLR,,0.00,WeatherDisplay:10.37,2013-01-23 02:43:00,
2013-01-22 21:48:00,8.3,-1.1,30.05,West,273,4.3,5.8,65,0.00,CLR,,0.00,WeatherDisplay:10.37,2013-01-23 02:48:00,
2013-01-22 21:53:00,8.1,-1.6,30.05,West,278,3.4,5.8,64,0.00,CLR,,0.00,WeatherDisplay:10.37,2013-01-23 02:53:00,
2013-01-22 21:58:00,8.1,-1.9,30.05,WSW,257,1.1,3.5,63,0.00,CLR,,0.00,WeatherDisplay:10.37,2013-01-23 02:58:00,
2013-01-22 22:03:00,8.0,-2.3,30.05,WNW,296,1.2,8.1,62,0.00,CLR,,0.00,WeatherDisplay:10.37,2013-01-23 03:03:00,
2013-01-22 22:08:00,8.0,-2.7,30.05,West,259,1.9,4.6,61,0.00,CLR,,0.00,WeatherDisplay:10.37,2013-01-23 03:08:00,
2013-01-22 22:13:00,8.1,-2.9,30.05,West,281,2.9,3.5,60,0.00,CLR,,0.00,WeatherDisplay:10.37,2013-01-23 03:13:00,
2013-01-22 22:18:00,8.0,-3.4,30.06,West,279,5.0,6.9,59,0.00,CLR,,0.00,WeatherDisplay:10.37,2013-01-23 03:18:00,
2013-01-22 22:23:00,8.0,-3.4,30.06,West,264,1.0,2.3,59,0.00,CLR,,0.00,WeatherDisplay:10.37,2013-01-23 03:23:00,
2013-01-22 22:28:00,8.0,-3.7,30.06,West,269,3.0,5.8,58,0.00,CLR,,0.00,WeatherDisplay:10.37,2013-01-23 03:28:00,
2013-01-22 22:33:00,7.8,-3.9,30.07,WNW,286,0.6,3.5,58,0.00,CLR,,0.00,WeatherDisplay:10.37,2013-01-23 03:33:00,
2013-01-22 22:38:00,7.6,-3.4,30.07,West,276,0.3,3.5,60,0.00,CLR,,0.00,WeatherDisplay:10.37,2013-01-23 03:38:00,
2013-01-22 22:43:00,7.4,-3.3,30.07,West,278,0.0,1.1,61,0.00,CLR,,0.00,WeatherDisplay:10.37,2013-01-23 03:43:00,
2013-01-22 22:48:00,7.1,-3.5,30.07,NW,306,0.3,1.1,61,0.00,CLR,,0.00,WeatherDisplay:10.37,2013-01-23 03:48:00,
2013-01-22 22:53:00,6.9,-3.4,30.07,West,266,0.5,2.3,62,0.00,CLR,,0.00,WeatherDisplay:10.37,2013-01-23 03:53:00,
2013-01-22 22:58:00,6.7,-3.2,30.07,West,268,0.1,0.0,63,0.00,CLR,,0.00,WeatherDisplay:10.37,2013-01-23 03:58:00,
2013-01-22 23:03:00,6.6,-3.3,30.07,West,275,2.7,8.0,63,0.00,SCT,,0.00,WeatherDisplay:10.37,2013-01-23 04:03:00,
2013-01-22 23:08:00,6.7,-3.6,30.07,West,276,1.6,8.1,62,0.00,SCT,,0.00,WeatherDisplay:10.37,2013-01-23 04:08:00,
2013-01-22 23:13:00,6.9,-4.1,30.07,West,268,1.7,4.0,60,0.00,SCT,,0.00,WeatherDisplay:10.37,2013-01-23 04:13:00,
2013-01-22 23:18:00,6.9,-4.4,30.07,West,261,2.4,5.8,59,0.00,SCT,,0.00,WeatherDisplay:10.37,2013-01-23 04:18:00,
2013-01-22 23:23:00,7.1,-5.0,30.07,West,272,2.3,8.1,57,0.00,SCT,,0.00,WeatherDisplay:10.37,2013-01-23 04:23:00,
2013-01-22 23:28:00,7.3,-5.1,30.07,West,268,3.1,4.6,56,0.00,SCT,,0.00,WeatherDisplay:10.37,2013-01-23 04:28:00,
2013-01-22 23:33:00,7.3,-5.5,30.07,WSW,257,3.6,3.6,55,0.00,SCT,,0.00,WeatherDisplay:10.37,2013-01-23 04:33:00,
2013-01-22 23:38:00,7.1,-5.7,30.07,West,281,0.4,2.3,55,0.00,SCT,,0.00,WeatherDisplay:10.37,2013-01-23 04:38:00,
2013-01-22 23:43:00,7.1,-5.3,30.07,West,275,1.8,3.5,56,0.00,SCT,,0.00,WeatherDisplay:10.37,2013-01-23 04:43:00,
2013-01-22 23:48:00,6.9,-5.1,30.07,WSW,257,2.6,6.9,57,0.00,SCT,,0.00,WeatherDisplay:10.37,2013-01-23 04:48:00,
2013-01-22 23:53:00,6.7,-5.3,30.07,WSW,257,4.6,8.1,57,0.00,SCT,,0.00,WeatherDisplay:10.37,2013-01-23 04:53:00,
2013-01-22 23:58:00,6.6,-5.8,30.07,West,262,0.8,3.5,56,0.00,SCT,,0.00,WeatherDisplay:10.37,2013-01-23 04:58:00,